Flight Track Log - Related Links

Times and Time Zones

All times are in EDT time to prevent confusion due to time zone crossing. See the N146RF flight status page for this flight to view local times or setup timezone preferences in your user account.

Time Position Orientation Groundspeed Altitude Reporting Facility
EDT Latitude Longitude Course Direction KTS MPH feet Rate Location/Type
Sat 01:05:51 PM 26.5028 -80.1556 252° West 149 171 2,100  Level Miami Center
Sat 01:06:51 PM 26.4936 -80.1922 254° West 149 171 2,800 750 Climbing Miami Center
Sat 01:07:51 PM 26.4886 -80.2294 261° West 144 166 3,600 650 Climbing Miami Center
Sat 01:08:51 PM 26.4978 -80.2736 283° West 139 160 4,100 700 Climbing Miami Center
Sat 01:09:51 PM 26.5183 -80.2975 314° West 130 150 5,000 900 Climbing Miami Center
Sat 01:10:00 PM 26.4945 -80.4709 252° West  Level Estimated
Sat 01:10:51 PM 26.5383 -80.3331 302° West 125 144 5,900  Level Miami Center
Sat 01:11:51 PM 26.5458 -80.3656 284° West 125 144 6,600 700 Climbing Miami Center
Sat 01:12:51 PM 26.5489 -80.4122 274° West 130 150 7,300 700 Climbing Miami Center
Sat 01:13:51 PM 26.5542 -80.4494 279° West 143 165 8,000 750 Climbing Miami Center
Sat 01:14:51 PM 26.5572 -80.4961 274° West 143 165 8,800 800 Climbing Miami Center
Sat 01:15:51 PM 26.5606 -80.5308 276° West 138 159 9,600 800 Climbing Miami Center
Sat 01:16:51 PM 26.5572 -80.5750 265° West 138 159 10,400 700 Climbing Miami Center
Sat 01:17:51 PM 26.5378 -80.6069 236° Southwest 138 159 11,000 300 Climbing Miami Center
Sat 01:18:51 PM 26.5094 -80.6522 235° Southwest 158 182 11,000  Level Miami Center
Sat 01:19:51 PM 26.4811 -80.6956 234° Southwest 187 215 11,000 -200 Level Miami Center
Sat 01:20:51 PM 26.4442 -80.7522 234° Southwest 194 223 10,600 -400 Descending Miami Center
Sat 01:21:51 PM 26.4158 -80.7978 235° Southwest 200 230 10,200 -400 Descending Miami Center
Sat 01:22:51 PM 26.3828 -80.8547 237° Southwest 205 236 9,800 -400 Descending Miami Center
Sat 01:23:51 PM 26.3544 -80.9025 237° Southwest 205 236 9,400 -400 Descending Miami Center
Sat 01:24:51 PM 26.3339 -80.9667 250° West 200 230 9,000 -400 Descending Miami Center
Sat 01:25:51 PM 26.3219 -81.0217 256° West 200 230 8,600 -500 Descending Miami Center
Sat 01:26:51 PM 26.3094 -81.0886 258° West 200 230 8,000 -550 Descending Miami Center
Sat 01:27:51 PM 26.2975 -81.1392 255° West 200 230 7,500 -500 Descending Miami Center
Sat 01:28:51 PM 26.2856 -81.1964 257° West 200 230 7,000 -500 Descending Miami Center
Sat 01:29:51 PM 26.2711 -81.2561 255° West 200 230 6,500 -500 Descending Miami Center
Sat 01:30:51 PM 26.2589 -81.3161 257° West 200 230 6,000 -500 Descending Miami Center
Sat 01:31:51 PM 26.2444 -81.3733 254° West 200 230 5,500 -500 Descending Miami Center
Sat 01:32:51 PM 26.2325 -81.4283 256° West 200 230 5,000 -550 Descending Miami Center
Sat 01:33:51 PM 26.2161 -81.4811 251° West 194 223 4,400 -500 Descending Miami Center
Sat 01:34:51 PM 26.1875 -81.5308 237° Southwest 189 217 4,000 -300 Descending Miami Center
Sat 01:35:51 PM 26.1586 -81.5806 237° Southwest 189 217 3,800 -200 Descending Miami Center
Sat 01:37:00 PM 26.1560 -81.6369 267° West  Level FlightAware Approximate
Sat 01:44:00 PM 26.1500 -81.7667 257° West  Level FlightAware Approximate
Sat 01:45:00 PM 26.1524 -81.7756 257° West  Level Estimated
Sat 01:46:00 PM 26.1524 -81.7756 257° West  Level Estimated
Sat 01:47:00 PM 26.1524 -81.7756 257° West  Level Estimated
Sat 01:48:00 PM 26.1524 -81.7756 257° West  Level Estimated
Sat 01:49:00 PM 26.1524 -81.7756 257° West  Level Estimated
Sat 01:50:00 PM 26.1524 -81.7756 257° West  Level Estimated
Sat 01:51:00 PM 26.1524 -81.7756 257° West  Level Estimated

Login

Don't have an account? Register now (free) for customized features, flight alerts, and more!